createdAt,value
2023-01-31T00:01:40.199Z,24.40
2023-01-31T00:04:12.624Z,23.67
2023-01-31T00:06:42.555Z,24.80
2023-01-31T00:09:12.009Z,21.58
2023-01-31T00:11:39.290Z,21.73
2023-01-31T00:14:07.787Z,21.45
2023-01-31T00:16:35.089Z,21.95
2023-01-31T00:19:02.751Z,18.83
2023-01-31T00:21:30.881Z,19.20
2023-01-31T00:23:59.172Z,19.42
2023-01-31T00:26:31.888Z,19.85
2023-01-31T00:29:01.597Z,18.98
2023-01-31T00:31:30.925Z,18.33
2023-01-31T00:33:58.464Z,18.25
2023-01-31T00:36:28.208Z,18.50
2023-01-31T00:38:57.772Z,19.02
2023-01-31T00:41:26.101Z,18.90
2023-01-31T00:43:53.084Z,19.45
2023-01-31T00:46:23.981Z,18.67
2023-01-31T00:48:51.116Z,17.92
2023-01-31T00:51:19.581Z,18.33
2023-01-31T00:53:47.463Z,18.33
2023-01-31T00:56:16.934Z,18.27
2023-01-31T00:58:44.153Z,18.30
2023-01-31T01:01:14.113Z,17.13
2023-01-31T01:03:43.231Z,16.92
2023-01-31T01:06:10.909Z,18.35
2023-01-31T01:08:39.619Z,16.55
2023-01-31T01:11:32.069Z,17.60
2023-01-31T01:14:00.801Z,18.60
2023-01-31T01:16:38.087Z,18.20
2023-01-31T01:19:07.954Z,18.38
2023-01-31T01:21:41.260Z,16.35
2023-01-31T01:24:14.950Z,17.90
2023-01-31T01:26:42.891Z,17.52
2023-01-31T01:29:10.189Z,19.00
2023-01-31T01:31:38.487Z,19.45
2023-01-31T01:34:16.448Z,18.95
2023-01-31T01:36:45.553Z,19.88
2023-01-31T01:39:16.861Z,19.60
2023-01-31T01:41:44.735Z,20.55
2023-01-31T01:44:48.990Z,18.88
2023-01-31T01:47:26.364Z,18.23
2023-01-31T01:50:16.766Z,17.75
2023-01-31T01:52:51.235Z,20.45
2023-01-31T01:58:20.828Z,17.55
2023-01-31T02:00:50.045Z,18.00
2023-01-31T02:03:18.439Z,15.82
2023-01-31T02:05:54.107Z,19.38
2023-01-31T02:08:23.949Z,19.20
2023-01-31T02:10:57.489Z,18.25
2023-01-31T02:13:25.236Z,18.23
2023-01-31T02:15:52.151Z,17.75
2023-01-31T02:18:22.067Z,16.92
2023-01-31T02:21:19.988Z,18.52
2023-01-31T02:24:16.432Z,18.05
2023-01-31T02:27:20.908Z,17.98
2023-01-31T02:30:38.473Z,18.73
2023-01-31T02:33:21.776Z,16.95
2023-01-31T02:36:10.261Z,18.25
2023-01-31T02:39:12.599Z,17.60
2023-01-31T02:42:12.544Z,17.90
2023-01-31T02:45:09.740Z,19.02
2023-01-31T02:47:49.005Z,20.38
2023-01-31T02:50:27.087Z,18.48
2023-01-31T02:53:03.736Z,20.35
2023-01-31T02:55:58.477Z,20.70
2023-01-31T02:58:31.248Z,20.35
2023-01-31T03:01:00.904Z,20.88
2023-01-31T03:03:38.082Z,25.35
2023-01-31T03:06:29.904Z,26.70
2023-01-31T03:09:22.126Z,24.38
2023-01-31T03:27:52.805Z,26.35
2023-01-31T03:30:27.765Z,26.33
2023-01-31T03:33:00.855Z,28.98
2023-01-31T03:35:31.763Z,26.52
2023-01-31T03:38:17.857Z,27.13
2023-01-31T03:41:08.357Z,25.67
2023-01-31T03:43:44.831Z,27.08
2023-01-31T03:46:17.922Z,26.15
2023-01-31T03:48:48.854Z,30.08
2023-01-31T03:51:23.313Z,28.05
2023-01-31T03:53:55.044Z,29.50
2023-01-31T03:56:28.361Z,27.88
2023-01-31T03:59:06.152Z,27.45
2023-01-31T04:01:37.097Z,29.55
2023-01-31T04:04:09.326Z,26.38
2023-01-31T04:06:37.077Z,27.45
2023-01-31T04:09:06.761Z,26.63
2023-01-31T04:11:39.084Z,27.65
2023-01-31T04:14:06.368Z,25.58
2023-01-31T04:16:33.568Z,27.45
2023-01-31T04:19:00.420Z,27.65
2023-01-31T04:21:27.375Z,27.55
2023-01-31T04:23:54.231Z,27.70
2023-01-31T04:26:21.179Z,26.00
2023-01-31T04:28:47.994Z,28.00
2023-01-31T04:31:14.966Z,27.92
2023-01-31T04:33:41.826Z,28.60
2023-01-31T04:36:09.252Z,26.02
2023-01-31T04:38:36.506Z,27.10
2023-01-31T04:41:03.548Z,26.20
2023-01-31T04:43:30.432Z,26.63
2023-01-31T04:45:57.250Z,28.08
2023-01-31T04:48:24.054Z,25.92
2023-01-31T04:50:50.948Z,26.65
2023-01-31T04:53:17.820Z,25.55
2023-01-31T04:55:44.762Z,24.58
2023-01-31T04:58:11.931Z,25.88
2023-01-31T05:00:38.834Z,26.35
2023-01-31T05:03:06.236Z,26.52
2023-01-31T05:05:35.974Z,28.38
2023-01-31T05:08:03.340Z,30.35
2023-01-31T05:10:30.309Z,30.27
2023-01-31T05:12:57.152Z,33.05
2023-01-31T05:18:26.449Z,34.55
2023-01-31T05:20:53.341Z,39.85
2023-01-31T05:23:20.433Z,48.03
2023-01-31T05:25:49.953Z,44.95
2023-01-31T05:28:17.277Z,47.47
2023-01-31T05:30:44.688Z,51.78
2023-01-31T05:33:12.115Z,52.72
2023-01-31T05:35:39.641Z,51.75
2023-01-31T05:38:06.922Z,50.65
2023-01-31T05:40:34.025Z,51.28
2023-01-31T05:43:01.843Z,49.10
2023-01-31T05:45:29.300Z,46.60
2023-01-31T05:47:56.932Z,44.15
2023-01-31T05:50:24.018Z,47.13
2023-01-31T05:52:55.346Z,43.42
2023-01-31T05:55:23.074Z,44.33
2023-01-31T05:57:50.009Z,39.22
2023-01-31T06:00:17.276Z,37.25
2023-01-31T06:02:44.132Z,38.70
2023-01-31T06:05:11.583Z,38.40
2023-01-31T06:07:39.312Z,36.75
2023-01-31T06:10:08.117Z,38.97
2023-01-31T06:12:35.648Z,35.28
2023-01-31T06:15:03.188Z,36.15
2023-01-31T06:17:31.239Z,34.00
2023-01-31T06:19:58.183Z,36.10
2023-01-31T06:22:25.134Z,35.50
2023-01-31T06:24:52.012Z,35.58
2023-01-31T06:27:18.848Z,36.42
2023-01-31T06:29:45.685Z,38.03
2023-01-31T06:32:12.553Z,37.47
2023-01-31T06:34:39.414Z,38.13
2023-01-31T06:37:09.695Z,37.65
2023-01-31T06:39:36.928Z,36.63
2023-01-31T06:42:04.263Z,37.10
2023-01-31T06:44:33.305Z,37.88
2023-01-31T06:47:01.615Z,36.92
2023-01-31T06:49:28.615Z,38.50
2023-01-31T06:51:55.672Z,39.90
2023-01-31T06:54:22.602Z,37.13
2023-01-31T06:56:49.604Z,39.13
2023-01-31T06:59:16.545Z,38.30
2023-01-31T07:01:43.428Z,37.95
2023-01-31T07:04:10.407Z,35.67
2023-01-31T07:06:37.262Z,37.55
2023-01-31T07:09:04.542Z,39.40
2023-01-31T07:11:31.539Z,39.83
2023-01-31T07:13:58.659Z,36.28
2023-01-31T07:16:26.204Z,35.80
2023-01-31T07:18:54.246Z,37.40
2023-01-31T07:21:22.482Z,37.08
2023-01-31T07:23:49.681Z,32.65
2023-01-31T07:26:17.083Z,35.88
2023-01-31T07:28:44.121Z,34.03
2023-01-31T07:31:13.247Z,36.63
2023-01-31T07:33:40.588Z,35.08
2023-01-31T07:36:08.724Z,34.17
2023-01-31T07:38:35.794Z,34.38
2023-01-31T07:41:04.565Z,32.17
2023-01-31T07:43:32.529Z,31.45
2023-01-31T07:45:59.502Z,33.25
2023-01-31T07:48:26.670Z,33.22
2023-01-31T07:51:01.672Z,35.00
2023-01-31T07:53:32.264Z,36.78
2023-01-31T07:56:14.484Z,35.05
2023-01-31T07:58:42.735Z,35.80
2023-01-31T08:01:38.784Z,34.40
2023-01-31T08:04:19.960Z,34.90
2023-01-31T08:06:49.052Z,34.70
2023-01-31T08:09:16.046Z,33.55
2023-01-31T08:11:43.087Z,32.47
2023-01-31T08:14:10.113Z,32.35
2023-01-31T08:16:37.665Z,33.50
2023-01-31T08:19:04.763Z,27.80
2023-01-31T08:21:31.759Z,32.05
2023-01-31T08:23:58.695Z,27.60
2023-01-31T08:26:25.604Z,30.83
2023-01-31T08:28:54.097Z,29.83
2023-01-31T08:31:23.406Z,27.88
2023-01-31T08:33:53.092Z,28.48
2023-01-31T08:36:24.431Z,28.27
2023-01-31T08:38:51.594Z,26.33
2023-01-31T08:41:20.522Z,25.48
2023-01-31T08:43:58.346Z,25.80
2023-01-31T08:46:31.320Z,25.13
2023-01-31T08:48:59.293Z,26.50
2023-01-31T08:51:26.513Z,23.95
2023-01-31T08:53:54.202Z,23.80
2023-01-31T08:56:25.478Z,25.13
2023-01-31T08:58:53.351Z,23.05
2023-01-31T09:01:21.647Z,21.63
2023-01-31T09:03:50.512Z,22.02
2023-01-31T09:06:20.024Z,19.00
2023-01-31T09:08:47.276Z,23.00
2023-01-31T09:11:19.720Z,20.75
2023-01-31T09:13:52.064Z,22.13
2023-01-31T09:16:19.949Z,21.05
2023-01-31T09:18:47.650Z,19.48
2023-01-31T09:21:17.944Z,21.48
2023-01-31T09:23:45.516Z,19.13
2023-01-31T09:26:13.617Z,19.52
2023-01-31T09:28:42.990Z,20.98
2023-01-31T09:31:13.131Z,19.00
2023-01-31T09:33:40.540Z,17.73
2023-01-31T09:36:10.409Z,17.98
2023-01-31T09:38:37.625Z,18.23
2023-01-31T09:41:14.277Z,21.05
2023-01-31T09:43:47.295Z,20.83
2023-01-31T09:46:19.517Z,19.17
2023-01-31T09:48:51.014Z,19.55
2023-01-31T09:51:18.979Z,17.60
2023-01-31T09:53:47.037Z,18.00
2023-01-31T09:56:46.319Z,19.23
2023-01-31T09:59:30.808Z,20.02
2023-01-31T10:02:34.298Z,22.55
2023-01-31T10:05:44.017Z,19.38
2023-01-31T10:08:22.925Z,17.30
2023-01-31T10:10:57.394Z,17.92
2023-01-31T10:16:26.506Z,19.63
2023-01-31T10:19:02.706Z,18.15
2023-01-31T10:21:36.996Z,18.08
2023-01-31T10:24:14.571Z,19.65
2023-01-31T10:26:44.060Z,18.80
2023-01-31T10:29:29.793Z,17.13
2023-01-31T10:32:01.190Z,19.77
2023-01-31T10:34:39.028Z,19.05
2023-01-31T10:37:14.150Z,20.63
2023-01-31T10:39:46.711Z,16.00
2023-01-31T10:42:32.426Z,17.77
2023-01-31T10:45:21.813Z,20.05
2023-01-31T10:47:54.139Z,19.48
2023-01-31T10:50:55.003Z,17.88
2023-01-31T10:54:14.141Z,19.27
2023-01-31T10:56:46.764Z,18.42
2023-01-31T10:59:26.398Z,17.65
2023-01-31T11:01:53.778Z,17.85
2023-01-31T11:04:30.384Z,18.40
2023-01-31T11:07:00.132Z,19.05
2023-01-31T11:09:32.457Z,19.25
2023-01-31T11:12:03.879Z,17.67
2023-01-31T11:14:31.628Z,16.75
2023-01-31T11:17:24.223Z,18.38
2023-01-31T11:19:57.869Z,20.73
2023-01-31T11:22:32.132Z,16.23
2023-01-31T11:25:01.993Z,15.65
2023-01-31T11:27:38.713Z,17.88
2023-01-31T11:30:07.513Z,17.45
2023-01-31T11:32:37.617Z,16.15
2023-01-31T11:35:25.381Z,14.88
2023-01-31T11:37:58.793Z,15.95
2023-01-31T11:40:30.725Z,16.55
2023-01-31T11:43:06.203Z,16.38
2023-01-31T11:45:40.531Z,15.77
2023-01-31T11:48:22.398Z,16.80
2023-01-31T11:50:55.815Z,16.67
2023-01-31T11:53:31.104Z,14.93
2023-01-31T11:56:16.217Z,15.18
2023-01-31T11:58:46.199Z,15.60
2023-01-31T12:01:14.871Z,16.48
2023-01-31T12:04:01.972Z,15.43
2023-01-31T12:06:39.413Z,15.48
2023-01-31T12:12:34.808Z,13.98
2023-01-31T12:15:05.824Z,14.02
2023-01-31T12:17:42.951Z,14.20
2023-01-31T12:20:36.397Z,13.70
2023-01-31T12:23:27.674Z,14.77
2023-01-31T12:26:13.342Z,14.32
2023-01-31T12:29:12.053Z,12.68
2023-01-31T12:31:48.059Z,14.70
2023-01-31T12:34:21.634Z,14.18
2023-01-31T12:37:09.861Z,13.43
2023-01-31T12:40:24.733Z,13.40
2023-01-31T12:43:02.759Z,13.90
2023-01-31T12:45:39.046Z,12.65
2023-01-31T12:48:12.450Z,12.48
2023-01-31T12:50:48.215Z,13.38
2023-01-31T12:53:51.111Z,13.82
2023-01-31T12:56:43.487Z,14.23
2023-01-31T12:59:32.035Z,14.57
2023-01-31T13:02:08.108Z,12.88
2023-01-31T13:04:54.534Z,12.13
2023-01-31T13:07:35.894Z,12.82
2023-01-31T13:10:07.328Z,12.38
2023-01-31T13:12:36.793Z,12.30
2023-01-31T13:15:26.427Z,12.85
2023-01-31T13:18:01.246Z,10.65
2023-01-31T13:20:36.438Z,10.88
2023-01-31T13:23:11.681Z,10.65
2023-01-31T13:25:50.732Z,10.52
2023-01-31T13:28:17.591Z,11.70
2023-01-31T13:31:08.778Z,10.90
2023-01-31T13:33:41.165Z,10.93
2023-01-31T13:36:38.415Z,9.93
2023-01-31T13:39:30.841Z,10.70
2023-01-31T13:41:58.453Z,10.50
2023-01-31T13:44:25.374Z,10.75
2023-01-31T13:47:01.294Z,11.43
2023-01-31T13:49:31.293Z,10.15
2023-01-31T13:52:02.344Z,11.77
2023-01-31T13:54:37.614Z,10.70
2023-01-31T13:57:06.273Z,9.80
2023-01-31T13:59:37.876Z,11.55
2023-01-31T14:02:17.196Z,11.32
2023-01-31T14:04:47.167Z,10.85
2023-01-31T14:07:17.224Z,10.88
2023-01-31T14:09:50.159Z,10.85
2023-01-31T14:12:17.259Z,10.07
2023-01-31T14:14:46.617Z,11.00
2023-01-31T14:17:23.949Z,10.02
2023-01-31T14:19:50.734Z,10.07
2023-01-31T14:22:22.121Z,10.45
2023-01-31T14:24:56.775Z,10.60
2023-01-31T14:27:24.987Z,10.75
2023-01-31T14:30:18.053Z,9.95
2023-01-31T14:33:08.157Z,9.77
2023-01-31T14:35:58.389Z,9.82
2023-01-31T14:38:31.321Z,9.05
2023-01-31T14:41:07.819Z,9.13
2023-01-31T14:43:49.862Z,8.98
2023-01-31T14:46:28.111Z,9.35
2023-01-31T14:49:27.185Z,9.32
2023-01-31T14:52:12.704Z,10.65
2023-01-31T14:55:04.088Z,10.68
2023-01-31T14:57:43.197Z,9.88
2023-01-31T15:00:19.370Z,10.70
2023-01-31T15:03:02.026Z,8.57
2023-01-31T15:05:31.992Z,9.65
2023-01-31T15:08:07.417Z,10.75
2023-01-31T15:10:54.255Z,9.63
2023-01-31T15:13:44.348Z,9.68
2023-01-31T15:30:03.066Z,8.77
2023-01-31T15:32:43.619Z,7.72
2023-01-31T15:35:24.955Z,8.45
2023-01-31T15:38:30.143Z,7.97
2023-01-31T15:41:06.315Z,8.38
2023-01-31T15:43:33.534Z,9.18
2023-01-31T15:46:13.410Z,9.00
2023-01-31T15:48:43.403Z,7.57
2023-01-31T15:54:08.522Z,7.07
2023-01-31T15:56:39.401Z,7.30
2023-01-31T15:59:13.121Z,8.07
2023-01-31T16:01:40.332Z,8.65
2023-01-31T16:04:07.702Z,7.95
2023-01-31T16:06:38.590Z,9.05
2023-01-31T16:09:07.245Z,6.57
2023-01-31T16:11:36.113Z,7.43
2023-01-31T16:14:06.056Z,7.43
2023-01-31T16:16:35.457Z,8.85
2023-01-31T16:19:03.931Z,10.68
2023-01-31T16:21:42.824Z,10.68
2023-01-31T16:24:20.722Z,7.13
2023-01-31T16:27:15.453Z,6.97
2023-01-31T16:29:46.742Z,6.75
2023-01-31T16:32:22.524Z,6.93
2023-01-31T16:35:33.804Z,6.85
2023-01-31T16:38:08.027Z,7.53
2023-01-31T16:40:37.549Z,6.75
2023-01-31T16:43:21.460Z,6.63
2023-01-31T16:45:55.630Z,6.93
2023-01-31T16:48:22.450Z,6.82
2023-01-31T16:50:53.010Z,8.55
2023-01-31T16:53:28.653Z,7.95
2023-01-31T16:56:14.005Z,8.00
2023-01-31T16:58:57.643Z,14.77
2023-01-31T17:01:34.597Z,7.30
2023-01-31T17:04:09.209Z,7.47
2023-01-31T17:06:37.408Z,7.55
2023-01-31T17:09:06.893Z,10.23
2023-01-31T17:11:42.773Z,12.38
2023-01-31T17:14:10.795Z,10.18
2023-01-31T17:16:37.794Z,9.32
2023-01-31T17:19:04.645Z,8.27
2023-01-31T17:21:37.840Z,8.90
2023-01-31T17:24:04.950Z,10.82
2023-01-31T17:26:31.896Z,16.02
2023-01-31T17:29:02.136Z,9.50
2023-01-31T17:31:31.432Z,7.35
2023-01-31T17:33:58.605Z,9.75
2023-01-31T17:36:25.439Z,11.40
2023-01-31T17:38:53.489Z,8.05
2023-01-31T17:41:24.705Z,7.70
2023-01-31T17:43:51.939Z,7.75
2023-01-31T17:46:19.418Z,7.95
2023-01-31T17:48:46.367Z,8.07
2023-01-31T17:51:13.427Z,8.05
2023-01-31T17:53:49.451Z,8.20
2023-01-31T17:56:18.719Z,8.85
2023-01-31T17:58:45.830Z,7.28
2023-01-31T18:01:14.412Z,7.85
2023-01-31T18:03:42.442Z,9.75
2023-01-31T18:06:10.156Z,9.45
2023-01-31T18:08:37.583Z,9.73
2023-01-31T18:11:10.800Z,8.50
2023-01-31T18:13:38.471Z,8.52
2023-01-31T18:16:14.879Z,9.10
2023-01-31T18:18:44.258Z,9.35
2023-01-31T18:21:16.196Z,9.85
2023-01-31T18:23:43.225Z,9.82
2023-01-31T18:26:11.241Z,11.02
2023-01-31T18:28:38.103Z,10.02
2023-01-31T18:31:10.582Z,11.27
2023-01-31T18:33:38.244Z,10.65
2023-01-31T18:36:06.111Z,10.38
2023-01-31T18:38:33.016Z,9.82
2023-01-31T18:41:02.750Z,11.45
2023-01-31T18:43:29.937Z,10.07
2023-01-31T18:45:56.810Z,9.73
2023-01-31T18:48:24.301Z,11.43
2023-01-31T18:50:51.250Z,12.55
2023-01-31T18:53:18.178Z,12.93
2023-01-31T18:55:44.951Z,12.60
2023-01-31T18:58:11.924Z,13.73
2023-01-31T19:00:38.809Z,12.63
2023-01-31T19:03:05.701Z,13.18
2023-01-31T19:05:32.519Z,12.48
2023-01-31T19:07:59.411Z,14.13
2023-01-31T19:10:26.327Z,13.38
2023-01-31T19:12:53.185Z,14.52
2023-01-31T19:15:20.353Z,15.25
2023-01-31T19:17:47.244Z,14.23
2023-01-31T19:20:14.178Z,15.32
2023-01-31T19:22:41.021Z,14.02
2023-01-31T19:25:10.008Z,13.65
2023-01-31T19:27:36.849Z,15.20
2023-01-31T19:30:04.112Z,14.07
2023-01-31T19:32:31.386Z,12.30
2023-01-31T19:34:58.250Z,13.45
2023-01-31T19:37:25.192Z,13.85
2023-01-31T19:39:52.065Z,13.95
2023-01-31T19:42:19.027Z,13.02
2023-01-31T19:44:45.936Z,12.90
2023-01-31T19:47:12.797Z,12.57
2023-01-31T19:49:39.671Z,10.65
2023-01-31T19:52:06.533Z,10.73
2023-01-31T19:54:33.401Z,11.88
2023-01-31T19:57:00.283Z,10.77
2023-01-31T19:59:27.242Z,11.18
2023-01-31T20:01:54.242Z,11.65
2023-01-31T20:04:21.161Z,11.50
2023-01-31T20:06:49.468Z,12.25
2023-01-31T20:09:20.303Z,11.25
2023-01-31T20:11:47.323Z,12.35
2023-01-31T20:14:14.288Z,12.10
2023-01-31T20:16:41.159Z,11.77
2023-01-31T20:19:08.355Z,11.32
2023-01-31T20:21:35.411Z,13.88
2023-01-31T20:24:02.542Z,12.45
2023-01-31T20:26:30.007Z,11.10
2023-01-31T20:31:59.278Z,10.95
2023-01-31T20:34:26.310Z,14.43
2023-01-31T20:36:53.138Z,10.63
2023-01-31T20:39:19.985Z,10.77
2023-01-31T20:41:46.839Z,11.40
2023-01-31T20:44:13.708Z,10.88
2023-01-31T20:46:41.837Z,11.85
2023-01-31T20:49:08.937Z,11.88
2023-01-31T20:51:35.923Z,10.55
2023-01-31T20:54:03.967Z,11.35
2023-01-31T20:56:30.851Z,11.77
2023-01-31T20:58:57.821Z,11.15
2023-01-31T21:01:25.091Z,9.77
2023-01-31T21:03:52.101Z,9.40
2023-01-31T21:06:18.994Z,10.50
2023-01-31T21:08:48.356Z,11.38
2023-01-31T21:11:15.579Z,11.88
2023-01-31T21:13:44.037Z,9.85
2023-01-31T21:16:12.219Z,9.73
2023-01-31T21:18:40.318Z,8.65
2023-01-31T21:21:09.612Z,8.38
2023-01-31T21:23:38.472Z,9.00
2023-01-31T21:26:08.276Z,9.30
2023-01-31T21:28:35.622Z,9.25
2023-01-31T21:31:06.375Z,9.55
2023-01-31T21:33:33.394Z,9.10
2023-01-31T21:36:07.325Z,16.30
2023-01-31T21:38:34.328Z,8.73
2023-01-31T21:41:19.993Z,9.32
2023-01-31T21:43:46.943Z,8.73
2023-01-31T21:46:15.108Z,8.27
2023-01-31T21:48:42.323Z,8.55
2023-01-31T21:51:11.810Z,9.23
2023-01-31T21:53:39.596Z,9.82
2023-01-31T21:56:12.895Z,8.90
2023-01-31T21:58:41.382Z,8.57
2023-01-31T22:01:12.450Z,9.25
2023-01-31T22:03:44.368Z,8.95
2023-01-31T22:06:14.026Z,8.57
2023-01-31T22:08:41.383Z,8.73
2023-01-31T22:11:13.895Z,11.77
2023-01-31T22:13:49.607Z,13.65
2023-01-31T22:16:20.788Z,9.18
2023-01-31T22:18:48.728Z,8.63
2023-01-31T22:21:21.135Z,8.60
2023-01-31T22:23:50.453Z,9.52
2023-01-31T22:26:24.279Z,13.23
2023-01-31T22:28:52.006Z,9.18
2023-01-31T22:31:19.422Z,9.70
2023-01-31T22:33:46.655Z,9.55
2023-01-31T22:36:15.001Z,8.55
2023-01-31T22:38:42.689Z,10.30
2023-01-31T22:41:12.170Z,12.07
2023-01-31T22:43:41.364Z,9.75
2023-01-31T22:46:11.227Z,9.00
2023-01-31T22:48:38.200Z,10.15
2023-01-31T22:51:10.150Z,9.48
2023-01-31T22:53:38.412Z,9.73
2023-01-31T22:56:08.170Z,11.15
2023-01-31T22:58:35.081Z,10.25
2023-01-31T23:01:02.281Z,9.18
2023-01-31T23:03:29.214Z,9.60
2023-01-31T23:05:56.130Z,10.07
2023-01-31T23:08:23.107Z,9.90
2023-01-31T23:10:49.892Z,9.15
2023-01-31T23:13:16.779Z,9.25
2023-01-31T23:15:43.750Z,10.35
2023-01-31T23:18:16.084Z,9.15
2023-01-31T23:20:43.149Z,10.15
2023-01-31T23:23:10.082Z,9.93
2023-01-31T23:25:36.984Z,9.75
2023-01-31T23:28:03.907Z,9.40
2023-01-31T23:30:30.892Z,10.38
2023-01-31T23:32:57.899Z,10.45
2023-01-31T23:35:25.028Z,11.98
2023-01-31T23:37:52.037Z,11.57
2023-01-31T23:40:19.147Z,10.63
2023-01-31T23:42:46.176Z,9.90
2023-01-31T23:45:13.040Z,10.07
2023-01-31T23:47:43.332Z,11.10
2023-01-31T23:50:11.228Z,10.60
2023-01-31T23:52:38.730Z,10.40
2023-01-31T23:55:06.326Z,10.55
2023-01-31T23:57:33.252Z,11.00
